Time;durP1;ratioP1;P1;durP2;ratioP2;P2;SDS_P1;SDS_P2;PMS_P1;PMS_P2;Temp;Humidity;BMP_temperature;BMP_pressure;BME280_temperature;BME280_humidity;BME280_pressure;Samples;Min_cycle;Max_cycle;Signal;HPM_P1;HPM_P2
2024/02/14 00:01:11;;;;;;;151.82;105.85;;;;;;;;;;4931105;29;20036;-65
2024/02/14 00:03:37;;;;;;;140.27;103.78;;;;;;;;;;4930986;28;20411;-66
2024/02/14 00:06:04;;;;;;;144.30;105.78;;;;;;;;;;4931109;28;20038;-66
2024/02/14 00:08:30;;;;;;;143.30;103.07;;;;;;;;;;4930993;28;20024;-66
2024/02/14 00:10:56;;;;;;;138.25;102.72;;;;;;;;;;4930824;29;20026;-66
2024/02/14 00:13:22;;;;;;;139.13;104.55;;;;;;;;;;4929892;28;20503;-66
2024/02/14 00:15:48;;;;;;;136.05;102.85;;;;;;;;;;4931104;29;20043;-68
2024/02/14 00:18:19;;;;;;;134.10;98.82;;;;;;;;;;4929548;28;20028;-68
2024/02/14 00:20:45;;;;;;;133.32;98.55;;;;;;;;;;4930940;28;20024;-68
2024/02/14 00:23:11;;;;;;;125.28;92.63;;;;;;;;;;4930806;29;20059;-68
2024/02/14 00:25:37;;;;;;;125.78;93.57;;;;;;;;;;4930983;28;20026;-68
2024/02/14 00:28:03;;;;;;;126.40;92.45;;;;;;;;;;4930586;28;20111;-68
2024/02/14 00:30:29;;;;;;;126.57;92.55;;;;;;;;;;4930481;28;20031;-68
2024/02/14 00:32:56;;;;;;;123.10;92.22;;;;;;;;;;4929618;28;20039;-67
2024/02/14 00:35:22;;;;;;;116.43;88.55;;;;;;;;;;4930704;29;20074;-67
2024/02/14 00:37:48;;;;;;;114.30;87.07;;;;;;;;;;4930477;28;20036;-66
2024/02/14 00:40:14;;;;;;;120.65;89.18;;;;;;;;;;4930443;28;20032;-68
2024/02/14 00:42:40;;;;;;;117.85;85.63;;;;;;;;;;4930529;28;20458;-67
2024/02/14 00:45:10;;;;;;;112.80;84.05;;;;;;;;;;4930551;28;20028;-65
2024/02/14 00:47:36;;;;;;;112.60;83.95;;;;;;;;;;4932168;28;20020;-65
2024/02/14 00:50:02;;;;;;;112.80;84.38;;;;;;;;;;4933643;28;20089;-65
2024/02/14 00:52:29;;;;;;;111.45;84.22;;;;;;;;;;4933795;28;20111;-64
2024/02/14 00:54:55;;;;;;;113.38;82.20;;;;;;;;;;4933811;28;20442;-66
2024/02/14 00:57:25;;;;;;;106.60;81.00;;;;;;;;;;4934051;28;20031;-65
2024/02/14 00:59:51;;;;;;;109.40;80.80;;;;;;;;;;4933665;28;20028;-65
2024/02/14 01:02:18;;;;;;;111.95;81.97;;;;;;;;;;4936160;28;20411;-65
2024/02/14 01:04:44;;;;;;;107.35;78.80;;;;;;;;;;4933664;28;20544;-66
2024/02/14 01:07:10;;;;;;;104.70;77.88;;;;;;;;;;4933635;28;20094;-66
2024/02/14 01:09:36;;;;;;;112.15;78.70;;;;;;;;;;4933823;28;20397;-65
2024/02/14 01:12:02;;;;;;;104.68;77.70;;;;;;;;;;4933700;28;20024;-66
2024/02/14 01:14:28;;;;;;;104.53;78.60;;;;;;;;;;4933664;28;20446;-67
2024/02/14 01:16:54;;;;;;;101.47;75.57;;;;;;;;;;4933460;29;20024;-67
2024/02/14 01:19:20;;;;;;;103.18;74.10;;;;;;;;;;4933316;28;20498;-66
2024/02/14 01:21:48;;;;;;;104.40;74.35;;;;;;;;;;4931798;28;20030;-67
2024/02/14 01:24:14;;;;;;;96.90;71.07;;;;;;;;;;4933323;28;20065;-66
2024/02/14 01:26:40;;;;;;;98.97;72.05;;;;;;;;;;4933296;28;20019;-68
2024/02/14 01:29:06;;;;;;;98.68;72.35;;;;;;;;;;4931969;28;20396;-65
2024/02/14 01:31:34;;;;;;;98.10;71.80;;;;;;;;;;4933150;28;20110;-65
2024/02/14 01:34:01;;;;;;;99.65;72.30;;;;;;;;;;4933130;28;20028;-68
2024/02/14 01:36:28;;;;;;;96.50;70.15;;;;;;;;;;4934355;28;20023;-67
2024/02/14 01:38:54;;;;;;;97.10;69.00;;;;;;;;;;4934255;28;20415;-64
2024/02/14 01:41:21;;;;;;;94.40;67.68;;;;;;;;;;4932152;28;20031;-65
2024/02/14 01:43:47;;;;;;;95.45;70.50;;;;;;;;;;4933025;28;20023;-64
2024/02/14 01:46:13;;;;;;;93.75;68.50;;;;;;;;;;4933174;28;20116;-64
2024/02/14 01:48:39;;;;;;;92.38;67.65;;;;;;;;;;4932998;28;20027;-65
2024/02/14 01:51:08;;;;;;;92.35;66.85;;;;;;;;;;4932791;28;20024;-64
2024/02/14 01:53:35;;;;;;;89.60;66.70;;;;;;;;;;4933086;28;20040;-64
2024/02/14 01:56:01;;;;;;;89.00;65.75;;;;;;;;;;4916046;29;20034;-65
2024/02/14 01:58:28;;;;;;;85.80;64.38;;;;;;;;;;4932825;28;20028;-64
2024/02/14 02:00:56;;;;;;;89.45;63.65;;;;;;;;;;4931564;29;20031;-64
2024/02/14 02:03:23;;;;;;;91.43;65.43;;;;;;;;;;4932856;29;20039;-64
2024/02/14 02:05:49;;;;;;;89.18;65.88;;;;;;;;;;4932873;28;20056;-65
2024/02/14 02:08:15;;;;;;;85.50;63.78;;;;;;;;;;4932677;28;20054;-64
2024/02/14 02:10:41;;;;;;;84.97;62.33;;;;;;;;;;4932737;28;20106;-64
2024/02/14 02:13:09;;;;;;;84.15;62.50;;;;;;;;;;4931748;28;20027;-66
2024/02/14 02:15:35;;;;;;;86.68;61.25;;;;;;;;;;4940326;28;20024;-65
2024/02/14 02:18:01;;;;;;;82.95;59.95;;;;;;;;;;4932402;28;20027;-64
2024/02/14 02:20:28;;;;;;;86.57;60.83;;;;;;;;;;4931917;28;20028;-64
2024/02/14 02:22:54;;;;;;;76.28;57.80;;;;;;;;;;4932284;28;20032;-65
2024/02/14 02:25:24;;;;;;;80.50;58.45;;;;;;;;;;4932685;28;20054;-65
2024/02/14 02:27:50;;;;;;;80.93;59.97;;;;;;;;;;4932636;29;20455;-67
2024/02/14 02:30:16;;;;;;;79.68;56.38;;;;;;;;;;4931958;28;20590;-66
2024/02/14 02:32:43;;;;;;;77.80;57.88;;;;;;;;;;4932396;28;20098;-66
2024/02/14 02:35:09;;;;;;;80.30;58.60;;;;;;;;;;4932135;28;20027;-66
2024/02/14 02:37:35;;;;;;;77.05;57.33;;;;;;;;;;4932292;28;20470;-67
2024/02/14 02:40:02;;;;;;;80.10;57.97;;;;;;;;;;4932410;29;20387;-66
2024/02/14 02:42:29;;;;;;;76.55;56.30;;;;;;;;;;4932540;28;20031;-67
2024/02/14 02:44:55;;;;;;;78.18;55.20;;;;;;;;;;4932152;28;20024;-67
2024/02/14 02:47:21;;;;;;;78.13;54.47;;;;;;;;;;4932067;28;20024;-67
2024/02/14 02:49:47;;;;;;;77.05;56.75;;;;;;;;;;4931917;28;20028;-66
2024/02/14 02:52:13;;;;;;;82.78;55.78;;;;;;;;;;4931832;28;20432;-65
2024/02/14 02:54:43;;;;;;;76.18;52.60;;;;;;;;;;4932222;28;20082;-65
2024/02/14 02:57:10;;;;;;;73.13;54.13;;;;;;;;;;4932253;28;20035;-65
2024/02/14 02:59:36;;;;;;;72.47;51.80;;;;;;;;;;4931865;28;20031;-65
2024/02/14 03:02:02;;;;;;;69.20;50.35;;;;;;;;;;4931634;28;20027;-65
2024/02/14 03:04:31;;;;;;;70.85;51.63;;;;;;;;;;4931667;28;20028;-65
2024/02/14 03:06:57;;;;;;;69.85;50.28;;;;;;;;;;4931898;29;20487;-66
2024/02/14 03:09:23;;;;;;;69.68;50.08;;;;;;;;;;4931238;28;20027;-66
2024/02/14 03:11:49;;;;;;;68.47;49.22;;;;;;;;;;4931668;29;20024;-65
2024/02/14 03:14:15;;;;;;;70.05;49.53;;;;;;;;;;4931632;29;20028;-65
2024/02/14 03:16:41;;;;;;;66.90;49.05;;;;;;;;;;4931732;28;20031;-65
2024/02/14 03:19:07;;;;;;;64.97;46.47;;;;;;;;;;4931516;28;20036;-65
2024/02/14 03:21:35;;;;;;;70.50;48.35;;;;;;;;;;4931509;28;20502;-65
2024/02/14 03:24:01;;;;;;;65.00;46.63;;;;;;;;;;4931646;28;20032;-65
2024/02/14 03:26:27;;;;;;;63.33;46.40;;;;;;;;;;4931576;28;20112;-65
2024/02/14 03:28:54;;;;;;;67.00;46.75;;;;;;;;;;4931329;28;20395;-65
2024/02/14 03:31:20;;;;;;;64.35;46.35;;;;;;;;;;4931442;28;20031;-66
2024/02/14 03:33:46;;;;;;;70.00;46.80;;;;;;;;;;4931629;28;20027;-65
2024/02/14 03:36:12;;;;;;;59.75;43.75;;;;;;;;;;4931389;28;20039;-65
2024/02/14 03:38:40;;;;;;;63.75;43.67;;;;;;;;;;4931127;28;20035;-65
2024/02/14 03:41:07;;;;;;;60.75;43.63;;;;;;;;;;4930319;28;20075;-66
2024/02/14 03:43:33;;;;;;;59.30;43.13;;;;;;;;;;4931853;28;20028;-66
2024/02/14 03:45:59;;;;;;;60.80;44.35;;;;;;;;;;4932694;28;20024;-66
2024/02/14 03:48:25;;;;;;;61.00;42.90;;;;;;;;;;4932798;29;20018;-65
2024/02/14 03:50:51;;;;;;;75.57;42.95;;;;;;;;;;4932913;28;20408;-65
2024/02/14 03:53:17;;;;;;;59.85;41.75;;;;;;;;;;4935374;28;20027;-66
2024/02/14 03:55:43;;;;;;;60.88;43.30;;;;;;;;;;4928482;29;20651;-65
2024/02/14 03:58:09;;;;;;;56.58;41.97;;;;;;;;;;4922425;28;20032;-65
2024/02/14 04:00:35;;;;;;;54.30;39.10;;;;;;;;;;4931690;29;20020;-65
2024/02/14 04:03:02;;;;;;;54.55;40.00;;;;;;;;;;4931061;28;20034;-64
2024/02/14 04:05:29;;;;;;;53.97;38.53;;;;;;;;;;4931002;28;20106;-65
2024/02/14 04:07:55;;;;;;;57.08;41.30;;;;;;;;;;4931090;29;20028;-65
2024/02/14 04:10:22;;;;;;;52.35;39.10;;;;;;;;;;4930933;29;20023;-66
2024/02/14 04:12:48;;;;;;;54.65;38.22;;;;;;;;;;4931111;28;20038;-66
2024/02/14 04:15:14;;;;;;;58.10;38.75;;;;;;;;;;4931107;29;20040;-66
2024/02/14 04:17:40;;;;;;;54.03;38.83;;;;;;;;;;4931036;28;20028;-65
2024/02/14 04:20:06;;;;;;;52.08;36.33;;;;;;;;;;4930846;28;20111;-66
2024/02/14 04:22:32;;;;;;;49.38;37.92;;;;;;;;;;4932388;28;20506;-65
2024/02/14 04:24:59;;;;;;;49.38;37.03;;;;;;;;;;4933867;29;20035;-65
2024/02/14 04:27:25;;;;;;;51.95;37.47;;;;;;;;;;4934256;28;20111;-66
2024/02/14 04:29:51;;;;;;;47.20;35.25;;;;;;;;;;4934290;28;20082;-66
2024/02/14 04:32:19;;;;;;;48.35;35.95;;;;;;;;;;4933878;28;20023;-66
2024/02/14 04:34:45;;;;;;;50.80;35.72;;;;;;;;;;4934085;28;20471;-67
2024/02/14 04:37:13;;;;;;;46.70;34.60;;;;;;;;;;4934003;28;20085;-67
2024/02/14 04:39:39;;;;;;;49.13;35.38;;;;;;;;;;4934580;28;20034;-66
2024/02/14 04:42:05;;;;;;;48.20;33.85;;;;;;;;;;4933847;28;20039;-67
2024/02/14 04:44:32;;;;;;;46.78;34.50;;;;;;;;;;4933885;28;20395;-67
2024/02/14 04:46:58;;;;;;;49.58;33.42;;;;;;;;;;4933999;28;20024;-67
2024/02/14 04:49:25;;;;;;;46.83;34.15;;;;;;;;;;4933730;28;20030;-67
2024/02/14 04:51:54;;;;;;;44.53;33.53;;;;;;;;;;4933772;28;20506;-67
2024/02/14 04:54:20;;;;;;;53.45;34.42;;;;;;;;;;4933790;29;20059;-65
2024/02/14 04:56:46;;;;;;;46.33;32.72;;;;;;;;;;4933914;29;20047;-66
2024/02/14 04:59:12;;;;;;;46.55;33.30;;;;;;;;;;4933662;28;20149;-66
2024/02/14 05:01:42;;;;;;;42.83;31.17;;;;;;;;;;4933388;28;20548;-66
2024/02/14 05:04:08;;;;;;;45.05;32.00;;;;;;;;;;4933563;28;20043;-66
2024/02/14 05:06:34;;;;;;;41.35;30.45;;;;;;;;;;4933855;28;20028;-66
2024/02/14 05:09:00;;;;;;;54.83;30.52;;;;;;;;;;4933526;28;20472;-67
2024/02/14 05:11:26;;;;;;;47.28;30.95;;;;;;;;;;4933392;29;20027;-66
2024/02/14 05:13:52;;;;;;;47.47;30.45;;;;;;;;;;4933520;29;20103;-65
2024/02/14 05:16:19;;;;;;;42.58;29.83;;;;;;;;;;4933226;28;20107;-65
2024/02/14 05:18:45;;;;;;;43.15;30.05;;;;;;;;;;4933256;28;20439;-65
2024/02/14 05:21:11;;;;;;;38.97;28.83;;;;;;;;;;4933350;28;20399;-65
2024/02/14 05:23:37;;;;;;;41.10;29.30;;;;;;;;;;4933419;29;20394;-65
2024/02/14 05:26:03;;;;;;;45.38;28.65;;;;;;;;;;4933306;29;20031;-65
2024/02/14 05:28:30;;;;;;;38.72;27.67;;;;;;;;;;4933317;29;20016;-64
2024/02/14 05:30:57;;;;;;;44.65;27.95;;;;;;;;;;4933125;28;20051;-63
2024/02/14 05:33:22;;;;;;;43.63;27.17;;;;;;;;;;4932957;28;20028;-66
2024/02/14 05:35:49;;;;;;;42.33;26.17;;;;;;;;;;4933319;28;20450;-66
2024/02/14 05:38:15;;;;;;;40.03;26.70;;;;;;;;;;4933162;28;20090;-65
2024/02/14 05:40:43;;;;;;;40.15;27.23;;;;;;;;;;4932965;28;20020;-65
2024/02/14 05:43:09;;;;;;;38.85;26.10;;;;;;;;;;4961429;28;20036;-65
2024/02/14 05:45:35;;;;;;;41.95;26.50;;;;;;;;;;4932899;28;20035;-65
2024/02/14 05:48:01;;;;;;;49.03;27.27;;;;;;;;;;4932813;28;20027;-64
2024/02/14 05:50:28;;;;;;;37.28;25.13;;;;;;;;;;4933008;28;20500;-65
2024/02/14 05:52:54;;;;;;;44.83;25.83;;;;;;;;;;4932937;28;20149;-65
2024/02/14 05:55:20;;;;;;;55.22;26.17;;;;;;;;;;4932885;28;20026;-66
2024/02/14 05:57:46;;;;;;;44.70;24.77;;;;;;;;;;4932836;28;20462;-65
2024/02/14 06:00:12;;;;;;;45.10;26.05;;;;;;;;;;4932597;28;20030;-64
2024/02/14 06:02:39;;;;;;;38.42;24.08;;;;;;;;;;4932663;28;20533;-65
2024/02/14 06:05:09;;;;;;;48.65;25.75;;;;;;;;;;4931372;28;20466;-65
2024/02/14 06:07:35;;;;;;;44.15;25.13;;;;;;;;;;4932436;29;20103;-65
2024/02/14 06:10:01;;;;;;;38.58;23.15;;;;;;;;;;4932655;28;20058;-65
2024/02/14 06:12:27;;;;;;;47.40;24.63;;;;;;;;;;4932372;28;20051;-65
2024/02/14 06:14:53;;;;;;;39.28;22.63;;;;;;;;;;4932493;29;20042;-64
2024/02/14 06:17:19;;;;;;;48.13;22.88;;;;;;;;;;4932631;29;20060;-65
2024/02/14 06:19:45;;;;;;;33.15;20.85;;;;;;;;;;4932580;29;20019;-65
2024/02/14 06:22:12;;;;;;;33.22;22.95;;;;;;;;;;4932529;29;20433;-64
2024/02/14 06:24:38;;;;;;;48.72;23.02;;;;;;;;;;4932701;28;20085;-66
2024/02/14 06:27:04;;;;;;;44.05;20.92;;;;;;;;;;4932266;28;20028;-65
2024/02/14 06:29:30;;;;;;;33.15;20.35;;;;;;;;;;4932504;28;20432;-65
2024/02/14 06:31:56;;;;;;;42.50;21.77;;;;;;;;;;4932368;29;20081;-66
2024/02/14 06:34:22;;;;;;;40.13;22.15;;;;;;;;;;4931200;28;20023;-66
2024/02/14 06:36:48;;;;;;;36.67;21.23;;;;;;;;;;4931304;29;20475;-66
2024/02/14 06:39:14;;;;;;;35.80;20.27;;;;;;;;;;4931026;28;20050;-67
2024/02/14 06:41:40;;;;;;;37.30;21.30;;;;;;;;;;4932136;29;20052;-66
2024/02/14 06:44:06;;;;;;;36.00;20.75;;;;;;;;;;4932247;28;20077;-71
2024/02/14 06:46:32;;;;;;;41.60;20.13;;;;;;;;;;4926960;28;20503;-66
2024/02/14 06:48:58;;;;;;;60.35;24.65;;;;;;;;;;4926904;28;20434;-66
2024/02/14 06:51:24;;;;;;;39.92;20.05;;;;;;;;;;4931919;28;20039;-67
2024/02/14 06:53:51;;;;;;;44.60;21.40;;;;;;;;;;4936431;28;20024;-66
2024/02/14 06:56:17;;;;;;;38.42;19.08;;;;;;;;;;4932387;29;20052;-65
2024/02/14 06:58:43;;;;;;;43.45;21.95;;;;;;;;;;4931632;29;20511;-67
2024/02/14 07:01:11;;;;;;;45.08;21.20;;;;;;;;;;4930317;29;20028;-66
2024/02/14 07:03:37;;;;;;;64.93;23.17;;;;;;;;;;4929026;28;20114;-66
2024/02/14 07:06:04;;;;;;;55.63;22.20;;;;;;;;;;4930291;28;20462;-66
2024/02/14 07:08:30;;;;;;;14.30;7.10;;;;;;;;;;4930198;28;20066;-66
2024/02/14 07:10:56;;;;;;;11.43;5.38;;;;;;;;;;4930246;28;20573;-65
2024/02/14 07:13:22;;;;;;;10.93;4.85;;;;;;;;;;4930510;28;20036;-68
2024/02/14 07:15:48;;;;;;;17.00;6.63;;;;;;;;;;4931646;29;20411;-63
2024/02/14 07:18:14;;;;;;;14.57;5.40;;;;;;;;;;4930033;28;20059;-63
2024/02/14 07:20:40;;;;;;;6.13;3.60;;;;;;;;;;4931590;28;20059;-63
2024/02/14 07:23:07;;;;;;;8.32;3.42;;;;;;;;;;4931704;28;20072;-63
2024/02/14 07:25:33;;;;;;;10.02;3.90;;;;;;;;;;4931860;29;20032;-63
2024/02/14 07:27:59;;;;;;;11.40;4.40;;;;;;;;;;4931764;29;20024;-67
2024/02/14 07:30:25;;;;;;;9.55;3.60;;;;;;;;;;4931712;28;20043;-67
2024/02/14 07:32:52;;;;;;;6.72;3.83;;;;;;;;;;4932068;29;20459;-67
2024/02/14 07:35:18;;;;;;;8.57;4.45;;;;;;;;;;4931538;28;20027;-67
2024/02/14 07:37:43;;;;;;;7.78;3.63;;;15.00;68.10;;;;;;4931243;28;20048;-66
2024/02/14 07:40:10;;;;;;;5.25;3.63;;;15.20;68.30;;;;;;4931765;28;20028;-67
2024/02/14 07:42:36;;;;;;;8.40;3.17;;;15.60;68.60;;;;;;4931792;29;20074;-67
2024/02/14 07:45:03;;;;;;;9.82;3.55;;;15.90;68.70;;;;;;4931633;28;20027;-67
2024/02/14 07:47:29;;;;;;;6.63;3.47;;;16.10;68.60;;;;;;4931469;28;20430;-67
2024/02/14 07:49:55;;;;;;;8.65;3.50;;;16.40;68.50;;;;;;4931481;28;20024;-67
2024/02/14 07:52:21;;;;;;;6.32;3.13;;;16.60;68.40;;;;;;4931412;28;20085;-68
2024/02/14 07:54:46;;;;;;;6.93;3.42;;;16.80;68.30;;;;;;4931433;28;20034;-67
2024/02/14 07:57:12;;;;;;;7.45;3.08;;;17.00;68.20;;;;;;4933908;28;20036;-67
2024/02/14 07:59:38;;;;;;;9.02;3.33;;;17.10;68.20;;;;;;4934712;28;20443;-67
2024/02/14 08:02:03;;;;;;;6.40;3.33;;;17.20;68.10;;;;;;4934679;29;20085;-67
2024/02/14 08:04:29;;;;;;;6.90;3.33;;;17.40;68.00;;;;;;4934630;28;20059;-67
2024/02/14 08:06:55;;;;;;;6.93;3.58;;;17.50;67.90;;;;;;4934944;29;20019;-67
2024/02/14 08:09:20;;;;;;;6.43;2.80;;;17.60;67.70;;;;;;4934723;29;20035;-67
2024/02/14 08:11:46;;;;;;;5.97;3.53;;;17.60;67.60;;;;;;4934578;28;20024;-67
2024/02/14 08:14:12;;;;;;;6.22;2.90;;;17.70;67.50;;;;;;4934672;28;20059;-67
2024/02/14 08:16:38;;;;;;;5.65;3.25;;;17.80;67.50;;;;;;4934659;28;20406;-67
2024/02/14 08:19:03;;;;;;;5.90;3.13;;;17.90;67.40;;;;;;4934530;28;20035;-67
2024/02/14 08:21:29;;;;;;;5.88;3.15;;;17.90;67.30;;;;;;4934333;28;20090;-68
2024/02/14 08:23:55;;;;;;;5.35;2.85;;;18.00;67.30;;;;;;4934695;28;20039;-67
2024/02/14 08:26:24;;;;;;;7.35;2.78;;;;;;;;;;4934471;28;20028;-68
2024/02/14 08:28:50;;;;;;;4.05;2.97;;;;;;;;;;4934431;28;20375;-67
2024/02/14 08:31:16;;;;;;;4.95;2.72;;;;;;;;;;4934164;29;20051;-68
2024/02/14 08:33:43;;;;;;;8.02;3.17;;;;;;;;;;4934360;28;20028;-67
2024/02/14 08:36:09;;;;;;;7.63;3.13;;;;;;;;;;4934244;29;20063;-68
2024/02/14 08:38:35;;;;;;;8.93;3.22;;;;;;;;;;4934152;29;20513;-68
2024/02/14 08:41:03;;;;;;;5.00;2.92;;;;;;;;;;4934148;28;20052;-68
2024/02/14 08:43:30;;;;;;;5.82;3.00;;;;;;;;;;4934039;29;20850;-68
2024/02/14 08:45:56;;;;;;;5.47;2.83;;;;;;;;;;4934290;29;20027;-67
2024/02/14 08:48:22;;;;;;;5.18;2.70;;;;;;;;;;4934172;29;20081;-68
2024/02/14 08:50:49;;;;;;;4.63;2.97;;;;;;;;;;4934051;29;20031;-68
2024/02/14 08:53:15;;;;;;;6.72;3.17;;;;;;;;;;4934135;28;20030;-67
2024/02/14 08:55:41;;;;;;;3.97;2.70;;;;;;;;;;4934099;28;20027;-67
2024/02/14 08:58:09;;;;;;;7.13;3.05;;;;;;;;;;4934002;28;20028;-67
2024/02/14 09:00:35;;;;;;;4.85;2.63;;;;;;;;;;4933612;28;20020;-67
2024/02/14 09:03:01;;;;;;;5.10;2.70;;;;;;;;;;4933929;28;20546;-68
2024/02/14 09:05:30;;;;;;;3.70;2.60;;;;;;;;;;4931151;28;20032;-67
2024/02/14 09:07:56;;;;;;;3.97;2.70;;;;;;;;;;4932962;28;20233;-67
2024/02/14 09:10:22;;;;;;;2.92;2.20;;;;;;;;;;4933653;28;20023;-67
2024/02/14 09:12:48;;;;;;;3.70;2.60;;;;;;;;;;4933830;28;20020;-67
2024/02/14 09:15:15;;;;;;;4.57;2.72;;;;;;;;;;4934055;28;20038;-68
2024/02/14 09:17:41;;;;;;;6.93;3.45;;;;;;;;;;4933769;29;20510;-68
2024/02/14 09:20:09;;;;;;;5.38;2.40;;;;;;;;;;4932606;29;20520;-68
2024/02/14 09:22:38;;;;;;;4.13;2.78;;;;;;;;;;4934288;28;20024;-67
2024/02/14 09:25:04;;;;;;;5.00;2.25;;;;;;;;;;4934862;28;20121;-68
2024/02/14 09:27:30;;;;;;;4.20;2.78;;;;;;;;;;4935391;29;20111;-67
2024/02/14 09:29:56;;;;;;;3.55;2.50;;;;;;;;;;4938146;29;20025;-67
2024/02/14 09:32:22;;;;;;;5.13;2.92;;;;;;;;;;4943164;28;20030;-67
2024/02/14 09:34:48;;;;;;;5.28;2.92;;;;;;;;;;4930037;29;20032;-67
2024/02/14 09:37:14;;;;;;;5.43;2.97;;;;;;;;;;4926229;29;20036;-67
2024/02/14 09:39:43;;;;;;;5.07;2.53;;;;;;;;;;4930715;28;20035;-67
2024/02/14 09:42:10;;;;;;;4.25;2.60;;;;;;;;;;4928748;28;20134;-67
2024/02/14 09:44:38;;;;;;;3.78;2.60;;;;;;;;;;4929528;29;20120;-68
2024/02/14 09:47:06;;;;;;;5.50;2.70;;;;;;;;;;4914596;29;20032;-67
2024/02/14 09:49:32;;;;;;;4.47;2.83;;;;;;;;;;4914505;28;20074;-67
2024/02/14 09:51:59;;;;;;;3.70;2.45;;;;;;;;;;4914336;29;20035;-67
2024/02/14 09:54:26;;;;;;;3.60;2.60;;;;;;;;;;4914252;28;20036;-67
2024/02/14 09:56:53;;;;;;;4.22;2.65;;;;;;;;;;4914203;28;20028;-67
2024/02/14 09:59:22;;;;;;;16.13;2.83;;;;;;;;;;4914318;28;20047;-67
2024/02/14 10:01:50;;;;;;;5.07;2.25;;;;;;;;;;4913916;28;20081;-67
2024/02/14 10:04:17;;;;;;;3.22;2.42;;;;;;;;;;4914031;29;20025;-67
2024/02/14 10:06:44;;;;;;;3.90;2.42;;;;;;;;;;4914214;28;20395;-67
2024/02/14 10:09:10;;;;;;;3.03;2.20;;;;;;;;;;4914102;28;20029;-68
2024/02/14 10:11:36;;;;;;;3.65;2.35;;;;;;;;;;4914168;28;20077;-68
2024/02/14 10:14:03;;;;;;;4.15;2.25;;;;;;;;;;4913818;28;20059;-68
2024/02/14 10:16:29;;;;;;;4.25;2.15;;;;;;;;;;4914052;29;20029;-67
2024/02/14 10:18:59;;;;;;;5.10;2.20;;;;;;;;;;4913871;28;20060;-68
2024/02/14 10:21:25;;;;;;;5.60;2.55;;;;;;;;;;4913544;28;20048;-68
2024/02/14 10:23:52;;;;;;;3.83;2.13;;;;;;;;;;4913565;28;20495;-68
2024/02/14 10:26:19;;;;;;;3.80;1.92;;;;;;;;;;4913817;29;20032;-68
2024/02/14 10:28:45;;;;;;;3.88;2.28;;;;;;;;;;4913818;29;20555;-68
2024/02/14 10:31:12;;;;;;;4.68;2.53;;;;;;;;;;4913528;28;20028;-68
2024/02/14 10:33:38;;;;;;;2.60;2.08;;;;;;;;;;4913664;28;20379;-69
2024/02/14 10:36:07;;;;;;;3.17;2.50;;;;;;;;;;4912549;28;20063;-68
2024/02/14 10:38:34;;;;;;;2.80;2.38;;;;;;;;;;4913307;28;20442;-68
2024/02/14 10:41:03;;;;;;;3.10;2.38;;;;;;;;;;4914026;28;20511;-68
2024/02/14 10:43:29;;;;;;;3.92;2.55;;;;;;;;;;4913325;28;20038;-68
2024/02/14 10:45:58;;;;;;;5.07;2.75;;;;;;;;;;4913297;28;20028;-68
2024/02/14 10:48:25;;;;;;;3.17;2.10;;;;;;;;;;4913341;29;20028;-68
2024/02/14 10:50:53;;;;;;;2.90;2.28;;;;;;;;;;4913126;29;20453;-69
2024/02/14 10:53:20;;;;;;;4.22;2.67;;;;;;;;;;4913241;29;20032;-67
2024/02/14 10:55:50;;;;;;;2.38;1.95;;;;;;;;;;4913432;28;20024;-69
2024/02/14 10:58:19;;;;;;;2.40;2.20;;;;;;;;;;4913047;28;20487;-68
2024/02/14 11:00:46;;;;;;;2.75;1.85;;;;;;;;;;4911648;29;20078;-68
2024/02/14 11:03:14;;;;;;;3.47;2.70;;;;;;;;;;4911827;29;20047;-68
2024/02/14 11:05:47;;;;;;;4.43;2.45;;;;;;;;;;4913023;28;20023;-68
2024/02/14 11:08:21;;;;;;;3.10;2.38;;;;;;;;;;4913015;29;20077;-69
2024/02/14 11:10:53;;;;;;;3.53;2.35;;;;;;;;;;4912919;28;20032;-69
2024/02/14 11:13:19;;;;;;;2.78;1.83;;;;;;;;;;4913013;28;20417;-68
2024/02/14 11:15:46;;;;;;;3.15;2.22;;;;;;;;;;4912933;28;20024;-68
2024/02/14 11:18:13;;;;;;;3.15;2.20;;;;;;;;;;4912780;28;20020;-68
2024/02/14 11:20:40;;;;;;;2.83;1.88;;;;;;;;;;4913320;28;20027;-68
2024/02/14 11:23:11;;;;;;;4.18;2.20;;;;;;;;;;4912874;28;20030;-68
2024/02/14 11:25:37;;;;;;;3.15;1.80;;;;;;;;;;4913002;29;20079;-68
2024/02/14 11:28:25;;;;;;;2.95;2.13;;;;;;;;;;4912819;29;20655;-68
2024/02/14 11:30:51;;;;;;;2.00;1.90;;;;;;;;;;4912057;28;20051;-68
2024/02/14 11:33:20;;;;;;;3.30;1.95;;;;;;;;;;4912679;28;20031;-68
2024/02/14 11:35:49;;;;;;;3.45;2.35;;;;;;;;;;4912644;29;20075;-69
2024/02/14 11:38:16;;;;;;;2.50;1.83;;;;;;;;;;4912444;28;20518;-68
2024/02/14 11:40:42;;;;;;;4.53;2.20;;;;;;;;;;4912481;29;20024;-68
2024/02/14 11:43:26;;;;;;;6.60;2.15;;;;;;;;;;4912580;28;20020;-68
2024/02/14 11:45:52;;;;;;;2.60;1.90;;;;;;;;;;4912519;29;20063;-68
2024/02/14 11:48:20;;;;;;;2.00;1.80;;;;;;;;;;4912724;29;20066;-68
2024/02/14 11:50:46;;;;;;;1.92;1.73;;;;;;;;;;4912756;28;20083;-68
2024/02/14 11:53:13;;;;;;;3.20;2.20;;;;;;;;;;4912872;29;20500;-68
2024/02/14 11:55:40;;;;;;;3.05;1.98;;;;;;;;;;4912694;28;20020;-68
2024/02/14 11:58:13;;;;;;;1.77;1.60;;;;;;;;;;4912370;29;20091;-69
2024/02/14 12:00:42;;;;;;;3.13;1.70;;;;;;;;;;4912215;28;20044;-68
2024/02/14 12:03:10;;;;;;;2.63;1.85;;;;;;;;;;4912319;29;20112;-68
2024/02/14 12:05:37;;;;;;;2.22;2.03;;;;;;;;;;4912227;28;20047;-68
2024/02/14 12:08:04;;;;;;;2.28;1.77;;;;;;;;;;4912014;29;20530;-68
2024/02/14 12:10:32;;;;;;;2.70;1.90;;;;;;;;;;4912107;29;20024;-68
2024/02/14 12:12:59;;;;;;;2.22;1.73;;;;;;;;;;4912498;28;20047;-68
2024/02/14 12:15:26;;;;;;;2.33;1.70;;;;;;;;;;4915788;28;20108;-68
2024/02/14 12:17:52;;;;;;;1.85;1.55;;;;;;;;;;4913762;29;20399;-68
2024/02/14 12:20:23;;;;;;;2.72;2.10;;;;;;;;;;4921100;29;20035;-68
2024/02/14 12:22:52;;;;;;;1.90;1.60;;;;;;;;;;4923344;29;20032;-68
2024/02/14 12:25:18;;;;;;;3.03;1.90;;;;;;;;;;4918558;28;20043;-68
2024/02/14 12:27:51;;;;;;;2.20;1.80;;;;;;;;;;4920013;28;20063;-68
2024/02/14 12:30:19;;;;;;;2.17;1.90;;;;;;;;;;4912127;29;20044;-68
2024/02/14 12:32:45;;;;;;;3.55;1.92;;;;;;;;;;4912198;28;20388;-68
2024/02/14 12:35:11;;;;;;;2.47;1.92;;;;;;;;;;4911988;28;20035;-68
2024/02/14 12:37:37;;;;;;;2.00;1.63;;;;;;;;;;4911857;29;20036;-68
2024/02/14 12:40:05;;;;;;;4.93;2.08;;;;;;;;;;4911905;28;20151;-68
2024/02/14 12:42:32;;;;;;;2.55;2.00;;;;;;;;;;4911963;29;20032;-68
2024/02/14 12:44:59;;;;;;;2.13;1.67;;;;;;;;;;4914995;28;20056;-68
2024/02/14 12:47:31;;;;;;;2.25;1.60;;;;;;;;;;4913743;28;20024;-68
2024/02/14 12:49:59;;;;;;;2.22;1.80;;;;;;;;;;4914952;28;20024;-68
2024/02/14 12:52:25;;;;;;;2.15;1.67;;;;;;;;;;4914883;28;20020;-68
2024/02/14 12:54:51;;;;;;;3.17;1.92;;;;;;;;;;4915000;29;20039;-68
2024/02/14 12:57:18;;;;;;;3.05;1.65;;;;;;;;;;4914912;28;20446;-66
2024/02/14 12:59:45;;;;;;;2.17;1.58;;;;;;;;;;4914660;28;20040;-68
2024/02/14 13:02:11;;;;;;;2.15;1.90;;;;;;;;;;4914515;28;20466;-67
2024/02/14 13:04:38;;;;;;;2.42;2.10;;;;;;;;;;4914555;29;20031;-67
2024/02/14 13:07:04;;;;;;;1.88;1.55;;;;;;;;;;4914923;28;20032;-67
2024/02/14 13:09:31;;;;;;;1.60;1.50;;;;;;;;;;4914570;28;20480;-67
2024/02/14 13:11:57;;;;;;;2.30;1.73;;;;;;;;;;4914399;28;20111;-66
2024/02/14 13:14:23;;;;;;;4.10;1.85;;;;;;;;;;4914703;28;20108;-68
2024/02/14 13:16:49;;;;;;;3.40;1.60;;;;;;;;;;4914721;28;20025;-69
2024/02/14 13:19:15;;;;;;;3.45;2.03;;;;;;;;;;4914544;29;20103;-68
2024/02/14 13:21:45;;;;;;;4.70;2.17;;;;;;;;;;4914616;29;20058;-68
2024/02/14 13:24:12;;;;;;;5.32;1.90;;;;;;;;;;4915330;28;20032;-68
2024/02/14 13:26:38;;;;;;;10.82;2.47;;;;;;;;;;4931267;28;20067;-68
2024/02/14 13:29:04;;;;;;;12.48;2.60;;;;;;;;;;4933667;28;20024;-68
2024/02/14 13:31:31;;;;;;;7.25;1.90;;;;;;;;;;4933784;28;20035;-68
2024/02/14 13:33:57;;;;;;;5.47;2.00;;;;;;;;;;4934376;28;20395;-68
2024/02/14 13:36:23;;;;;;;5.32;1.98;;;;;;;;;;4934819;28;20024;-68
2024/02/14 13:38:50;;;;;;;2.58;1.60;;;;;;;;;;4939203;29;20042;-68
2024/02/14 13:41:16;;;;;;;5.35;1.90;;;;;;;;;;4938017;28;20518;-68
2024/02/14 13:43:42;;;;;;;9.63;1.88;;;;;;;;;;4938237;29;20030;-68
2024/02/14 13:46:09;;;;;;;3.88;1.80;;;;;;;;;;4950665;28;20028;-68
2024/02/14 13:48:35;;;;;;;3.15;1.80;;;;;;;;;;4948788;28;20028;-68
2024/02/14 13:51:03;;;;;;;3.80;1.90;;;;;;;;;;4947525;28;20046;-68
2024/02/14 13:53:29;;;;;;;1.98;1.67;;;;;;;;;;4940980;29;20097;-68
2024/02/14 13:55:56;;;;;;;4.40;2.20;;;;;;;;;;4933708;28;20044;-68
2024/02/14 13:58:22;;;;;;;4.35;1.85;;;;;;;;;;4933506;28;20024;-69
2024/02/14 14:00:48;;;;;;;3.58;2.00;;;;;;;;;;4933028;28;20035;-69
2024/02/14 14:03:14;;;;;;;10.02;1.90;;;;;;;;;;4933562;28;20118;-68
2024/02/14 14:05:40;;;;;;;4.22;2.05;;;;;;;;;;4933560;28;20028;-68
2024/02/14 14:08:06;;;;;;;3.10;1.77;;;;;;;;;;4933334;28;20054;-68
2024/02/14 14:10:32;;;;;;;4.45;2.30;;;;;;;;;;4933317;28;20034;-68
2024/02/14 14:12:58;;;;;;;4.00;1.80;;;;;;;;;;4933219;28;20394;-69
2024/02/14 14:15:26;;;;;;;3.45;2.10;;;;;;;;;;4933132;28;20131;-69
2024/02/14 14:17:52;;;;;;;3.75;1.88;;;;;;;;;;4933475;28;20035;-68